Time;durP1;ratioP1;P1;durP2;ratioP2;P2;SDS_P1;SDS_P2;PMS_P1;PMS_P2;Temp;Humidity;BMP_temperature;BMP_pressure;BME280_temperature;BME280_humidity;BME280_pressure;Samples;Min_cycle;Max_cycle;Signal;HPM_P1;HPM_P2
2022/03/09 00:00:31;;;;;;;8.40;4.97;;;-1.00;99.90;;;;;;4997928;28;20213;-74
2022/03/09 00:02:56;;;;;;;8.47;5.10;;;-1.00;99.90;;;;;;4982050;28;20181;-74
2022/03/09 00:05:22;;;;;;;8.37;5.13;;;-1.10;99.90;;;;;;5014596;28;20173;-75
2022/03/09 00:07:48;;;;;;;7.80;5.17;;;-1.00;99.90;;;;;;4998334;28;20641;-75
2022/03/09 00:10:13;;;;;;;10.10;5.10;;;-0.80;99.90;;;;;;4982158;28;20202;-75
2022/03/09 00:12:39;;;;;;;8.27;5.17;;;-0.90;99.90;;;;;;5014110;28;20577;-74
2022/03/09 00:15:05;;;;;;;10.23;4.97;;;-0.90;99.90;;;;;;4981697;28;20173;-74
2022/03/09 00:17:31;;;;;;;6.93;4.77;;;-1.00;99.90;;;;;;4998315;28;20257;-74
2022/03/09 00:19:57;;;;;;;7.77;5.30;;;-1.10;99.90;;;;;;4997893;28;20181;-75
2022/03/09 00:22:22;;;;;;;7.10;4.77;;;-1.00;99.90;;;;;;4981667;28;20181;-75
2022/03/09 00:24:48;;;;;;;9.53;5.17;;;-1.10;99.90;;;;;;4998226;28;20193;-75
2022/03/09 00:27:13;;;;;;;7.10;4.70;;;-1.20;99.90;;;;;;4981611;28;20674;-75
2022/03/09 00:29:39;;;;;;;7.37;5.07;;;-1.20;99.90;;;;;;4981799;28;20212;-74
2022/03/09 00:32:06;;;;;;;6.93;4.60;;;-1.10;99.90;;;;;;5014013;28;20262;-74
2022/03/09 00:34:33;;;;;;;6.90;5.13;;;-1.10;99.90;;;;;;4998302;28;20181;-74
2022/03/09 00:36:58;;;;;;;8.37;5.10;;;-1.20;99.90;;;;;;4981921;28;20185;-75
2022/03/09 00:39:24;;;;;;;8.13;5.20;;;-1.20;99.90;;;;;;4997939;28;20219;-75
2022/03/09 00:41:50;;;;;;;7.17;4.30;;;-1.10;99.90;;;;;;4981400;28;20206;-74
2022/03/09 00:44:15;;;;;;;7.27;4.97;;;-1.30;99.90;;;;;;4981552;28;20208;-75
2022/03/09 00:46:41;;;;;;;6.73;4.80;;;-1.40;99.90;;;;;;5001689;28;20209;-74
2022/03/09 00:49:07;;;;;;;6.83;4.63;;;-1.30;99.90;;;;;;5001654;28;20241;-75
2022/03/09 00:51:32;;;;;;;7.67;4.90;;;-1.40;99.90;;;;;;4985389;28;20209;-74
2022/03/09 00:53:58;;;;;;;7.93;4.40;;;-1.50;99.90;;;;;;4985436;28;20182;-74
2022/03/09 00:56:24;;;;;;;8.50;5.17;;;-1.60;99.90;;;;;;5001456;28;20536;-74
2022/03/09 00:58:49;;;;;;;7.17;4.93;;;-1.70;99.90;;;;;;5001762;28;20237;-75
2022/03/09 01:01:15;;;;;;;7.93;4.97;;;-1.60;99.90;;;;;;5001748;28;20212;-75
2022/03/09 01:03:41;;;;;;;9.73;4.70;;;-1.60;99.90;;;;;;4985224;28;20191;-75
2022/03/09 01:06:07;;;;;;;7.77;5.53;;;-1.70;99.90;;;;;;5017688;28;20176;-75
2022/03/09 01:08:33;;;;;;;6.37;5.00;;;-1.80;99.90;;;;;;5017649;28;20190;-76
2022/03/09 01:10:58;;;;;;;8.43;5.10;;;-1.80;99.90;;;;;;5001190;28;20230;-75
2022/03/09 01:13:24;;;;;;;7.53;5.23;;;-1.70;99.90;;;;;;5000931;28;20262;-76
2022/03/09 01:15:50;;;;;;;7.47;4.77;;;-1.60;99.90;;;;;;5001023;28;20179;-76
2022/03/09 01:18:16;;;;;;;7.77;5.30;;;-1.50;99.90;;;;;;4984938;28;20187;-76
2022/03/09 01:20:42;;;;;;;7.50;4.70;;;-1.50;99.90;;;;;;5017354;28;20700;-75
2022/03/09 01:23:07;;;;;;;8.23;5.33;;;-1.50;99.90;;;;;;5000838;28;20188;-75
2022/03/09 01:25:33;;;;;;;7.00;4.90;;;-1.50;99.90;;;;;;5017286;28;20181;-75
2022/03/09 01:27:59;;;;;;;7.80;5.40;;;-1.50;99.90;;;;;;5017120;28;20185;-75
2022/03/09 01:30:25;;;;;;;8.97;5.77;;;-1.60;99.90;;;;;;5001009;28;20212;-76
2022/03/09 01:32:51;;;;;;;8.40;5.23;;;-1.60;99.90;;;;;;5000771;28;20211;-75
2022/03/09 01:35:17;;;;;;;8.57;5.07;;;-1.70;99.90;;;;;;5000993;28;20177;-75
2022/03/09 01:37:45;;;;;;;8.77;5.53;;;-1.70;99.90;;;;;;5017025;28;20186;-75
2022/03/09 01:40:11;;;;;;;10.03;5.67;;;-1.60;99.90;;;;;;5000881;28;20212;-75
2022/03/09 01:42:37;;;;;;;8.83;5.60;;;-1.60;99.90;;;;;;5000484;28;20192;-75
2022/03/09 01:45:05;;;;;;;9.07;5.97;;;-1.90;99.90;;;;;;4984331;28;20178;-75
2022/03/09 01:47:31;;;;;;;8.43;5.13;;;-1.90;99.90;;;;;;5000824;28;20184;-75
2022/03/09 01:49:56;;;;;;;10.27;6.20;;;-1.90;99.90;;;;;;5000654;28;20236;-75
2022/03/09 01:52:23;;;;;;;9.23;5.70;;;-1.90;99.90;;;;;;4984017;28;20202;-76
2022/03/09 01:54:51;;;;;;;9.97;6.60;;;-1.80;99.90;;;;;;5016616;28;20176;-75
2022/03/09 01:57:17;;;;;;;9.10;6.00;;;-1.80;99.90;;;;;;5015381;28;20266;-75
2022/03/09 01:59:42;;;;;;;8.10;5.63;;;-2.00;99.90;;;;;;4984348;28;20266;-75
2022/03/09 02:02:08;;;;;;;10.00;5.90;;;-2.00;99.90;;;;;;4999958;28;20601;-75
2022/03/09 02:04:34;;;;;;;9.73;6.50;;;-2.00;99.90;;;;;;4984041;28;20186;-76
2022/03/09 02:06:59;;;;;;;9.13;5.87;;;-1.90;99.90;;;;;;4983985;28;20183;-75
2022/03/09 02:09:44;;;;;;;9.17;6.00;;;-1.80;99.90;;;;;;5000041;28;20179;-75
2022/03/09 02:12:15;;;;;;;8.57;5.87;;;-1.80;99.90;;;;;;5016403;28;20207;-75
2022/03/09 02:14:43;;;;;;;9.23;6.47;;;-1.90;99.90;;;;;;5000279;28;20651;-76
2022/03/09 02:17:11;;;;;;;10.33;6.40;;;-2.00;99.90;;;;;;5016317;28;20172;-75
2022/03/09 02:19:38;;;;;;;12.50;6.87;;;-2.00;99.90;;;;;;4983819;28;20176;-75
2022/03/09 02:22:11;;;;;;;11.23;6.40;;;-1.80;99.90;;;;;;5015896;28;20203;-76
2022/03/09 02:24:37;;;;;;;10.63;6.53;;;-1.80;99.90;;;;;;5000782;28;20416;-75
2022/03/09 02:27:02;;;;;;;12.53;7.03;;;-1.80;99.90;;;;;;4999989;28;20184;-76
2022/03/09 02:29:28;;;;;;;12.17;7.17;;;-1.90;99.90;;;;;;5016010;28;20182;-76
2022/03/09 02:31:54;;;;;;;10.47;6.90;;;-2.00;99.90;;;;;;4999318;28;20210;-75
2022/03/09 02:34:20;;;;;;;12.73;7.00;;;-2.10;99.90;;;;;;4999680;28;20170;-76
2022/03/09 02:36:46;;;;;;;9.57;6.67;;;-2.00;99.90;;;;;;4999707;28;20182;-76
2022/03/09 02:39:11;;;;;;;10.13;7.00;;;-2.00;99.90;;;;;;4983235;28;20178;-76
2022/03/09 02:41:37;;;;;;;10.73;6.80;;;-1.90;99.90;;;;;;4983321;28;20253;-75
2022/03/09 02:44:03;;;;;;;10.30;6.60;;;-1.80;99.90;;;;;;4983217;28;20210;-75
2022/03/09 02:46:29;;;;;;;10.47;7.27;;;-1.80;99.90;;;;;;4983482;28;20203;-75
2022/03/09 02:48:55;;;;;;;12.47;6.97;;;-1.80;99.90;;;;;;4983291;28;20630;-75
2022/03/09 02:51:21;;;;;;;9.67;6.73;;;-1.90;99.90;;;;;;5015273;28;20194;-75
2022/03/09 02:53:48;;;;;;;11.50;7.30;;;-1.90;99.90;;;;;;5015626;28;20211;-75
2022/03/09 02:56:15;;;;;;;11.07;7.13;;;-1.90;99.90;;;;;;4999524;28;20180;-75
2022/03/09 02:58:41;;;;;;;12.10;7.40;;;-2.00;99.90;;;;;;5015602;28;20188;-75
2022/03/09 03:01:07;;;;;;;10.07;6.63;;;-1.90;99.90;;;;;;4982932;28;20211;-76
2022/03/09 03:03:33;;;;;;;9.37;6.77;;;-2.10;99.90;;;;;;4982880;28;20186;-75
2022/03/09 03:05:59;;;;;;;12.77;6.87;;;-2.30;99.90;;;;;;4982798;28;20184;-75
2022/03/09 03:08:24;;;;;;;10.03;7.07;;;-2.50;99.90;;;;;;4998839;28;20190;-76
2022/03/09 03:10:50;;;;;;;10.77;6.77;;;-2.40;99.90;;;;;;4999056;28;20210;-76
2022/03/09 03:13:15;;;;;;;11.87;6.77;;;-2.40;99.90;;;;;;4998889;28;20246;-75
2022/03/09 03:15:41;;;;;;;12.03;6.87;;;-2.50;99.90;;;;;;4982646;28;20201;-75
2022/03/09 03:18:07;;;;;;;11.00;6.67;;;-2.40;99.90;;;;;;4998842;28;20179;-76
2022/03/09 03:20:34;;;;;;;10.90;6.77;;;-2.30;99.90;;;;;;4998470;28;20209;-75
2022/03/09 03:22:59;;;;;;;14.07;7.57;;;-2.20;99.90;;;;;;4982542;28;20221;-75
2022/03/09 03:25:25;;;;;;;11.27;7.03;;;-2.30;99.90;;;;;;4982661;28;20208;-75
2022/03/09 03:27:50;;;;;;;11.33;7.30;;;-2.30;99.90;;;;;;4998713;28;20190;-76
2022/03/09 03:30:16;;;;;;;10.53;6.80;;;-2.30;99.90;;;;;;4998721;28;20244;-75
2022/03/09 03:32:42;;;;;;;12.40;7.17;;;-2.30;99.90;;;;;;4982235;28;20210;-75
2022/03/09 03:35:08;;;;;;;11.40;6.90;;;-2.20;99.90;;;;;;5015196;28;20177;-75
2022/03/09 03:37:33;;;;;;;10.23;6.90;;;-2.10;99.90;;;;;;4982519;28;20185;-75
2022/03/09 03:39:59;;;;;;;10.93;6.80;;;-2.20;99.90;;;;;;4998381;28;20176;-75
2022/03/09 03:42:25;;;;;;;9.37;6.87;;;-2.20;99.90;;;;;;4998456;28;20187;-76
2022/03/09 03:44:51;;;;;;;10.40;6.87;;;-2.10;99.90;;;;;;4998474;28;20188;-75
2022/03/09 03:47:16;;;;;;;10.40;6.47;;;-2.10;99.90;;;;;;4998343;28;20183;-76
2022/03/09 03:49:42;;;;;;;11.23;7.40;;;-2.10;99.90;;;;;;4982070;28;20656;-75
2022/03/09 03:52:07;;;;;;;10.67;7.40;;;-2.20;99.90;;;;;;4981902;28;20237;-75
2022/03/09 03:54:33;;;;;;;13.87;7.70;;;-2.20;99.90;;;;;;5014666;28;20211;-76
2022/03/09 03:56:59;;;;;;;9.90;6.73;;;-2.20;99.90;;;;;;4982230;28;20179;-75
2022/03/09 03:59:24;;;;;;;12.30;7.47;;;-2.30;99.90;;;;;;4982232;28;20187;-75
2022/03/09 04:01:50;;;;;;;13.33;7.50;;;-2.20;99.90;;;;;;4981591;28;20226;-75
2022/03/09 04:04:15;;;;;;;11.00;7.00;;;-2.10;99.90;;;;;;4981885;28;20182;-75
2022/03/09 04:06:41;;;;;;;9.83;6.87;;;-2.10;99.90;;;;;;4998060;28;20542;-76
2022/03/09 04:09:07;;;;;;;11.57;6.93;;;-2.30;99.90;;;;;;4998402;28;20779;-75
2022/03/09 04:11:33;;;;;;;10.50;6.83;;;-2.50;99.90;;;;;;4981596;28;20198;-76
2022/03/09 04:13:58;;;;;;;13.90;7.13;;;-2.40;99.90;;;;;;4982130;28;20285;-75
2022/03/09 04:16:24;;;;;;;11.23;6.63;;;-2.50;99.90;;;;;;5014308;28;20263;-76
2022/03/09 04:18:50;;;;;;;10.30;6.47;;;-2.50;99.90;;;;;;4981397;28;20175;-75
2022/03/09 04:21:15;;;;;;;10.70;6.27;;;-2.50;99.90;;;;;;4997556;28;20195;-75
2022/03/09 04:23:41;;;;;;;11.13;6.73;;;-2.40;99.90;;;;;;4981899;28;20206;-75
2022/03/09 04:26:07;;;;;;;10.97;6.57;;;-2.50;99.90;;;;;;4981938;28;20672;-76
2022/03/09 04:28:33;;;;;;;11.93;7.33;;;-2.60;99.90;;;;;;4998108;28;20187;-75
2022/03/09 04:30:59;;;;;;;10.80;7.53;;;-2.70;99.90;;;;;;4997812;28;20223;-76
2022/03/09 04:33:24;;;;;;;11.53;7.47;;;-2.80;99.90;;;;;;4997553;28;20279;-76
2022/03/09 04:35:50;;;;;;;8.93;6.47;;;-2.70;99.90;;;;;;4981898;28;20190;-76
2022/03/09 04:38:16;;;;;;;10.13;6.60;;;-2.60;99.90;;;;;;4997905;28;20200;-75
2022/03/09 04:40:41;;;;;;;11.73;6.57;;;-2.80;99.90;;;;;;4997751;28;20198;-76
2022/03/09 04:43:07;;;;;;;12.83;6.77;;;-2.80;99.90;;;;;;4981408;28;20255;-76
2022/03/09 04:45:33;;;;;;;8.97;6.13;;;-3.00;99.90;;;;;;4997953;28;20559;-75
2022/03/09 04:47:59;;;;;;;12.17;6.70;;;-3.00;99.90;;;;;;4997648;28;20574;-75
2022/03/09 04:50:24;;;;;;;10.30;6.33;;;-2.90;99.90;;;;;;5014144;28;20194;-75
2022/03/09 04:52:50;;;;;;;10.70;6.33;;;-2.90;99.90;;;;;;4997410;28;20256;-75
2022/03/09 04:55:16;;;;;;;12.33;6.90;;;-2.80;99.90;;;;;;4981923;28;20612;-76
2022/03/09 04:57:42;;;;;;;9.53;6.17;;;-2.90;99.90;;;;;;5014099;28;20514;-75
2022/03/09 05:00:08;;;;;;;9.27;6.17;;;-2.90;99.90;;;;;;4997463;28;20206;-76
2022/03/09 05:02:35;;;;;;;10.37;6.07;;;-2.80;99.90;;;;;;4997449;28;20174;-75
2022/03/09 05:05:00;;;;;;;11.27;6.63;;;-2.80;99.90;;;;;;5014072;28;20178;-76
2022/03/09 05:07:26;;;;;;;10.50;6.27;;;-2.80;99.90;;;;;;4981526;28;20220;-75
2022/03/09 05:09:51;;;;;;;10.67;6.47;;;-2.70;99.90;;;;;;4997562;28;20191;-75
2022/03/09 05:12:17;;;;;;;11.80;6.80;;;-2.70;99.90;;;;;;4981418;28;20282;-75
2022/03/09 05:14:43;;;;;;;11.43;6.60;;;-2.70;99.90;;;;;;5013863;28;20300;-75
2022/03/09 05:17:08;;;;;;;11.67;7.30;;;-2.70;99.90;;;;;;4981308;28;20817;-75
2022/03/09 05:19:34;;;;;;;10.13;6.67;;;-2.80;99.90;;;;;;4981507;28;20252;-75
2022/03/09 05:22:00;;;;;;;10.87;6.80;;;-2.80;99.90;;;;;;5013346;28;20199;-75
2022/03/09 05:24:25;;;;;;;11.77;6.40;;;-2.80;99.90;;;;;;4997478;28;20186;-76
2022/03/09 05:26:51;;;;;;;10.80;6.07;;;-2.80;99.90;;;;;;4981329;28;20269;-75
2022/03/09 05:29:17;;;;;;;9.93;5.90;;;-2.90;99.90;;;;;;5013795;28;20266;-75
2022/03/09 05:31:44;;;;;;;9.13;5.90;;;-2.80;99.90;;;;;;4998950;28;20202;-75
2022/03/09 05:34:10;;;;;;;9.63;6.27;;;-2.80;99.90;;;;;;5001208;28;20179;-75
2022/03/09 05:36:36;;;;;;;10.00;6.33;;;-3.10;99.90;;;;;;5000722;28;20179;-75
2022/03/09 05:39:03;;;;;;;10.20;5.83;;;-3.20;99.90;;;;;;5001007;28;20593;-75
2022/03/09 05:41:28;;;;;;;8.60;5.47;;;-3.20;99.90;;;;;;5000367;28;20199;-75
2022/03/09 05:43:54;;;;;;;10.17;6.10;;;-3.20;99.90;;;;;;5016980;28;20225;-75
2022/03/09 05:46:20;;;;;;;8.03;5.40;;;-3.30;99.90;;;;;;5000449;28;20194;-76
2022/03/09 05:48:45;;;;;;;8.73;5.50;;;-3.20;99.90;;;;;;5000524;28;20299;-75
2022/03/09 05:51:11;;;;;;;9.93;5.87;;;-3.40;99.90;;;;;;4984222;28;20205;-76
2022/03/09 05:53:39;;;;;;;9.80;5.93;;;-3.30;99.90;;;;;;5000311;28;20584;-75
2022/03/09 05:56:05;;;;;;;9.47;6.13;;;-3.40;99.90;;;;;;5000637;28;20642;-75
2022/03/09 05:58:31;;;;;;;9.07;5.97;;;-3.30;99.90;;;;;;4984467;28;20186;-75
2022/03/09 06:00:56;;;;;;;10.57;6.20;;;-3.20;99.90;;;;;;4983760;28;20271;-76
2022/03/09 06:03:22;;;;;;;8.13;5.53;;;-3.20;99.90;;;;;;4983990;28;20178;-78
2022/03/09 06:05:48;;;;;;;8.53;5.40;;;-3.10;99.90;;;;;;5000776;28;20604;-77
2022/03/09 06:08:14;;;;;;;9.20;5.60;;;-3.00;99.90;;;;;;5016599;28;20178;-77
2022/03/09 06:10:39;;;;;;;9.73;6.00;;;-3.00;99.90;;;;;;5000392;28;20232;-77
2022/03/09 06:13:05;;;;;;;8.87;6.07;;;-2.90;99.90;;;;;;4999946;28;20210;-77
2022/03/09 06:15:31;;;;;;;7.53;4.97;;;-2.90;99.90;;;;;;4984012;28;20188;-77
2022/03/09 06:17:56;;;;;;;8.53;5.40;;;-2.90;99.90;;;;;;4984079;28;20301;-77
2022/03/09 06:20:23;;;;;;;8.90;5.27;;;-2.90;99.90;;;;;;4983940;28;20686;-77
2022/03/09 06:22:49;;;;;;;7.10;5.50;;;-2.90;99.90;;;;;;4983633;28;20193;-77
2022/03/09 06:25:15;;;;;;;8.17;5.63;;;-2.90;99.90;;;;;;4999941;28;20199;-77
2022/03/09 06:27:52;;;;;;;7.37;5.50;;;-2.90;99.90;;;;;;5016098;28;20174;-77
2022/03/09 06:30:18;;;;;;;8.57;5.53;;;-3.00;99.90;;;;;;4983737;28;20213;-77
2022/03/09 06:32:45;;;;;;;8.47;5.50;;;-2.90;99.90;;;;;;5015974;28;20584;-77
2022/03/09 06:35:14;;;;;;;7.67;4.87;;;-2.80;99.90;;;;;;5000076;28;20183;-75
2022/03/09 06:37:40;;;;;;;10.70;6.00;;;-2.70;99.90;;;;;;5000073;28;20179;-78
2022/03/09 06:40:07;;;;;;;9.17;6.67;;;-2.50;99.90;;;;;;5015982;28;20178;-80
2022/03/09 06:42:34;;;;;;;9.40;6.40;;;-2.40;99.90;;;;;;5015055;28;20185;-77
2022/03/09 06:45:00;;;;;;;9.67;6.00;;;-2.40;99.90;;;;;;5016038;28;20265;-77
2022/03/09 06:47:25;;;;;;;10.80;6.33;;;-2.40;99.90;;;;;;4983475;28;20277;-77
2022/03/09 06:49:51;;;;;;;11.00;6.63;;;-2.40;99.90;;;;;;5015708;28;20262;-77
2022/03/09 06:52:17;;;;;;;8.70;5.60;;;-2.30;99.90;;;;;;4999350;28;20384;-77
2022/03/09 06:54:43;;;;;;;10.63;6.00;;;-1.70;99.90;;;;;;4983654;28;20187;-76
2022/03/09 06:57:09;;;;;;;12.40;7.07;;;-0.50;99.90;;;;;;5015513;28;20234;-76
2022/03/09 06:59:34;;;;;;;11.57;7.47;;;0.40;99.90;;;;;;4999427;28;20263;-76
2022/03/09 07:02:00;;;;;;;11.83;7.50;;;0.90;99.90;;;;;;5047185;23;20236;-74
2022/03/09 07:04:26;;;;;;;13.63;8.73;;;1.30;99.90;;;;;;5012271;28;20227;-75
2022/03/09 07:06:51;;;;;;;12.07;7.90;;;1.30;99.90;;;;;;5012221;28;20200;-74
2022/03/09 07:09:17;;;;;;;13.57;7.90;;;0.70;99.90;;;;;;5012198;28;20555;-74
2022/03/09 07:11:44;;;;;;;12.93;8.03;;;0.10;99.90;;;;;;4999519;28;20209;-75
2022/03/09 07:14:10;;;;;;;12.70;8.63;;;-0.50;99.90;;;;;;4976531;28;20195;-74
2022/03/09 07:16:36;;;;;;;15.80;8.63;;;-0.90;99.90;;;;;;4992829;28;20178;-75
2022/03/09 07:19:01;;;;;;;13.37;8.57;;;-1.30;99.90;;;;;;4976575;28;20528;-74
2022/03/09 07:21:27;;;;;;;12.90;8.00;;;-1.50;99.90;;;;;;4992029;28;20224;-74
2022/03/09 07:23:53;;;;;;;11.77;8.17;;;-1.50;99.90;;;;;;4976153;28;20556;-74
2022/03/09 07:26:18;;;;;;;12.40;8.27;;;-1.40;99.90;;;;;;4976001;28;20210;-74
2022/03/09 07:28:44;;;;;;;12.77;8.40;;;-1.40;99.90;;;;;;4976044;28;20269;-74
2022/03/09 07:31:10;;;;;;;13.33;7.67;;;-1.40;99.90;;;;;;4976048;28;20210;-74
2022/03/09 07:33:36;;;;;;;12.30;7.37;;;-1.40;99.90;;;;;;4975957;28;20221;-74
2022/03/09 07:36:02;;;;;;;13.10;8.50;;;-1.40;99.90;;;;;;4975824;28;20185;-74
2022/03/09 07:38:28;;;;;;;15.77;8.23;;;-1.40;99.90;;;;;;4992343;28;20187;-74
2022/03/09 07:40:54;;;;;;;12.37;7.80;;;-1.20;99.90;;;;;;4993086;28;20197;-74
2022/03/09 07:43:20;;;;;;;11.77;7.80;;;-1.10;99.90;;;;;;4975672;28;20178;-73
2022/03/09 07:45:46;;;;;;;11.33;7.87;;;-1.10;99.90;;;;;;4992022;28;20185;-74
2022/03/09 07:48:12;;;;;;;13.57;7.80;;;-0.90;99.90;;;;;;4975963;28;20277;-74
2022/03/09 07:50:38;;;;;;;12.57;8.47;;;-0.80;99.90;;;;;;4991930;28;20229;-74
2022/03/09 07:53:06;;;;;;;13.03;8.27;;;-0.60;99.90;;;;;;4991437;28;20232;-74
2022/03/09 07:55:31;;;;;;;11.97;8.20;;;-0.50;99.90;;;;;;4992231;28;20813;-74
2022/03/09 07:57:57;;;;;;;12.10;7.40;;;-0.40;99.90;;;;;;4975624;28;20182;-74
2022/03/09 08:00:23;;;;;;;12.83;7.90;;;-0.20;99.90;;;;;;4976241;28;20197;-74
2022/03/09 08:02:48;;;;;;;13.83;7.50;;;-0.10;99.90;;;;;;4978553;28;20235;-74
2022/03/09 08:05:15;;;;;;;10.97;6.83;;;0.00;99.90;;;;;;4978611;28;20178;-73
2022/03/09 08:07:41;;;;;;;11.70;7.83;;;0.10;99.90;;;;;;5012977;28;20669;-75
2022/03/09 08:10:09;;;;;;;10.37;6.80;;;0.20;99.90;;;;;;4975997;28;20181;-74
2022/03/09 08:12:34;;;;;;;15.07;8.10;;;0.20;99.90;;;;;;5010120;28;20255;-74
2022/03/09 08:15:01;;;;;;;12.23;7.60;;;0.40;99.90;;;;;;4993276;28;20178;-74
2022/03/09 08:17:26;;;;;;;12.57;7.70;;;0.50;99.90;;;;;;4978637;28;20181;-74
2022/03/09 08:19:52;;;;;;;12.93;7.03;;;0.70;99.90;;;;;;4978234;28;20176;-74
2022/03/09 08:22:18;;;;;;;12.53;7.77;;;0.80;99.90;;;;;;4978261;28;20206;-74
2022/03/09 08:24:43;;;;;;;15.43;7.13;;;1.00;99.90;;;;;;4994915;28;20901;-74
2022/03/09 08:27:09;;;;;;;13.87;8.33;;;1.10;99.90;;;;;;4978640;28;20360;-74
2022/03/09 08:29:34;;;;;;;11.93;7.90;;;1.30;99.90;;;;;;4962480;28;20189;-74
2022/03/09 08:32:00;;;;;;;12.20;8.10;;;1.50;99.90;;;;;;4962069;28;20203;-74
2022/03/09 08:34:25;;;;;;;12.90;8.03;;;1.70;99.90;;;;;;4962383;28;20175;-74
2022/03/09 08:36:51;;;;;;;11.53;7.80;;;1.90;99.90;;;;;;4962450;28;20194;-74
2022/03/09 08:39:17;;;;;;;11.93;8.40;;;2.00;99.90;;;;;;4962165;28;20183;-74
2022/03/09 08:41:44;;;;;;;12.77;8.23;;;2.20;99.90;;;;;;4994331;28;20193;-76
2022/03/09 08:44:10;;;;;;;11.67;7.83;;;2.30;99.90;;;;;;4962717;28;20203;-74
2022/03/09 08:46:35;;;;;;;14.03;10.43;;;2.50;99.90;;;;;;4978267;28;20587;-74
2022/03/09 08:49:02;;;;;;;18.13;10.87;;;2.70;99.90;;;;;;4994784;28;20183;-75
2022/03/09 08:51:27;;;;;;;18.30;9.90;;;2.80;99.90;;;;;;4994155;28;20234;-73
2022/03/09 08:53:53;;;;;;;19.87;11.70;;;3.00;99.90;;;;;;4978143;28;20285;-73
2022/03/09 08:56:20;;;;;;;22.40;12.20;;;3.20;99.90;;;;;;4994410;28;20229;-74
2022/03/09 08:58:46;;;;;;;23.90;13.23;;;3.40;99.90;;;;;;4994450;28;20176;-74
2022/03/09 09:01:12;;;;;;;23.47;12.73;;;3.60;99.90;;;;;;4994302;28;20218;-73
2022/03/09 09:03:37;;;;;;;14.50;8.60;;;3.80;99.90;;;;;;4994238;28;20179;-73
2022/03/09 09:06:03;;;;;;;11.40;7.77;;;4.10;99.90;;;;;;4979328;28;20191;-73
2022/03/09 09:08:28;;;;;;;10.93;7.90;;;4.30;99.90;;;;;;4997930;28;20176;-74
2022/03/09 09:10:54;;;;;;;12.70;7.93;;;4.50;99.90;;;;;;4965870;28;20233;-73
2022/03/09 09:13:20;;;;;;;11.93;7.63;;;4.60;99.90;;;;;;4997701;28;20226;-73
2022/03/09 09:15:47;;;;;;;10.57;7.50;;;4.80;99.90;;;;;;4997879;28;20192;-73
2022/03/09 09:18:13;;;;;;;9.77;7.13;;;5.10;99.90;;;;;;4998191;28;20201;-74
2022/03/09 09:20:38;;;;;;;12.37;8.10;;;5.20;99.90;;;;;;5013862;28;20224;-74
2022/03/09 09:23:05;;;;;;;11.43;7.50;;;5.40;99.90;;;;;;4965243;28;20274;-74
2022/03/09 09:25:31;;;;;;;9.37;7.13;;;5.60;99.90;;;;;;4997984;28;20225;-74
2022/03/09 09:27:58;;;;;;;12.40;7.57;;;5.80;99.90;;;;;;4981665;28;20186;-73
2022/03/09 09:30:26;;;;;;;11.17;7.00;;;6.00;99.90;;;;;;5015108;28;20171;-74
2022/03/09 09:32:52;;;;;;;9.27;7.10;;;6.20;99.90;;;;;;4981926;28;20252;-74
2022/03/09 09:35:18;;;;;;;11.83;6.97;;;6.30;99.90;;;;;;4981180;28;20269;-74
2022/03/09 09:37:44;;;;;;;9.27;6.50;;;6.40;99.90;;;;;;4997456;28;20183;-73
2022/03/09 09:40:12;;;;;;;11.77;6.37;;;6.50;99.90;;;;;;5015259;28;20163;-74
2022/03/09 09:42:38;;;;;;;9.33;6.73;;;6.60;99.90;;;;;;4980906;28;20597;-74
2022/03/09 09:45:04;;;;;;;9.13;6.73;;;6.80;99.90;;;;;;4981110;28;20183;-74
2022/03/09 09:47:32;;;;;;;9.67;6.30;;;7.00;99.90;;;;;;4997700;28;20179;-74
2022/03/09 09:49:58;;;;;;;8.30;6.30;;;7.10;99.90;;;;;;4981196;28;20651;-73
2022/03/09 09:52:28;;;;;;;10.40;6.60;;;7.20;99.90;;;;;;4980645;28;20210;-74
2022/03/09 09:54:56;;;;;;;9.07;6.50;;;7.40;99.90;;;;;;4997196;28;20175;-74
2022/03/09 09:57:22;;;;;;;7.67;5.73;;;7.50;99.90;;;;;;4980969;28;20172;-76
2022/03/09 09:59:50;;;;;;;9.67;6.30;;;7.70;99.90;;;;;;4997249;28;20235;-75
2022/03/09 10:02:16;;;;;;;7.50;5.97;;;8.00;99.90;;;;;;4997212;28;20217;-75
2022/03/09 10:04:42;;;;;;;8.87;6.00;;;8.30;99.90;;;;;;4998116;28;20263;-74
2022/03/09 10:07:08;;;;;;;9.03;5.90;;;8.40;99.90;;;;;;4996921;28;20269;-74
2022/03/09 10:09:36;;;;;;;7.90;5.93;;;8.60;99.90;;;;;;4981172;28;20181;-75
2022/03/09 10:12:04;;;;;;;7.60;6.00;;;8.70;99.90;;;;;;4996605;28;20193;-75
2022/03/09 10:14:52;;;;;;;7.63;6.60;;;8.80;99.70;;;;;;4981205;28;20168;-75
2022/03/09 10:17:25;;;;;;;8.37;5.77;;;8.80;98.70;;;;;;4980575;28;20654;-75
2022/03/09 10:19:58;;;;;;;7.53;6.03;;;8.90;98.10;;;;;;5014425;28;20205;-75
2022/03/09 10:22:32;;;;;;;9.20;6.47;;;9.10;97.70;;;;;;5013992;28;20191;-74
2022/03/09 10:25:10;;;;;;;7.53;6.07;;;9.30;97.70;;;;;;4996733;28;20603;-74
2022/03/09 10:27:54;;;;;;;7.23;5.40;;;9.40;97.10;;;;;;5014089;28;20167;-74
2022/03/09 10:30:29;;;;;;;7.27;5.73;;;9.50;96.20;;;;;;4996665;28;20171;-74
2022/03/09 10:33:00;;;;;;;7.00;5.70;;;9.30;95.40;;;;;;4981195;28;20196;-74
2022/03/09 10:35:31;;;;;;;7.20;5.87;;;9.50;95.40;;;;;;4996440;28;20238;-74
2022/03/09 10:38:03;;;;;;;8.60;5.87;;;9.70;96.10;;;;;;4996353;28;20226;-74
2022/03/09 10:40:31;;;;;;;7.27;5.30;;;9.90;95.40;;;;;;4996258;28;20186;-74
2022/03/09 10:43:33;;;;;;;8.70;6.00;;;10.10;94.80;;;;;;4980312;28;20179;-74
2022/03/09 10:46:12;;;;;;;9.67;5.83;;;10.30;91.90;;;;;;4918208;29;20602;-74
2022/03/09 10:48:50;;;;;;;8.60;5.50;;;10.10;91.30;;;;;;4971823;28;20211;-74
2022/03/09 10:51:28;;;;;;;8.23;5.87;;;10.30;92.20;;;;;;4995979;28;20618;-75
2022/03/09 10:53:54;;;;;;;8.80;6.57;;;10.60;91.70;;;;;;4996097;28;20201;-74
2022/03/09 10:56:20;;;;;;;8.33;5.70;;;10.90;90.90;;;;;;4996315;28;20184;-75
2022/03/09 10:58:46;;;;;;;7.83;5.77;;;11.00;89.40;;;;;;4979695;28;20185;-74
2022/03/09 11:01:19;;;;;;;7.83;6.10;;;10.90;87.90;;;;;;4979483;28;20225;-74
2022/03/09 11:03:46;;;;;;;9.40;6.17;;;11.00;88.80;;;;;;5012332;28;20224;-74
2022/03/09 11:06:12;;;;;;;9.90;7.00;;;11.20;89.00;;;;;;4979874;28;20183;-74
2022/03/09 11:08:39;;;;;;;8.97;6.80;;;11.40;89.50;;;;;;4996068;28;20182;-74
2022/03/09 11:11:06;;;;;;;7.07;5.60;;;11.40;86.70;;;;;;4979526;28;20206;-74
2022/03/09 11:13:35;;;;;;;8.87;6.20;;;11.10;83.60;;;;;;4979255;28;20296;-74
2022/03/09 11:16:02;;;;;;;6.80;5.90;;;11.20;83.60;;;;;;4995962;28;20175;-74
2022/03/09 11:18:30;;;;;;;8.63;6.57;;;11.40;84.60;;;;;;4995697;28;20186;-74
2022/03/09 11:20:59;;;;;;;7.80;6.17;;;11.80;83.80;;;;;;4979481;28;20202;-74
2022/03/09 11:23:25;;;;;;;8.03;6.63;;;11.70;81.90;;;;;;4979672;28;20651;-74
2022/03/09 11:26:13;;;;;;;8.43;5.90;;;11.40;82.00;;;;;;4996151;28;20182;-74
2022/03/09 11:28:41;;;;;;;8.00;6.40;;;11.50;80.50;;;;;;4966133;28;20178;-75
2022/03/09 11:31:09;;;;;;;7.50;6.30;;;12.00;80.40;;;;;;4979894;28;20689;-75
2022/03/09 11:33:56;;;;;;;9.13;6.70;;;12.20;80.10;;;;;;4995941;28;20225;-75
2022/03/09 11:36:21;;;;;;;9.00;6.20;;;12.30;77.90;;;;;;4979688;28;20174;-75
2022/03/09 11:38:55;;;;;;;10.53;6.40;;;12.10;76.70;;;;;;4995980;28;20395;-75
2022/03/09 11:41:22;;;;;;;9.37;5.97;;;12.20;78.10;;;;;;4979887;28;20690;-75
2022/03/09 11:43:49;;;;;;;8.23;5.63;;;12.20;74.60;;;;;;4979402;28;20202;-75
2022/03/09 11:46:16;;;;;;;8.53;6.40;;;12.30;76.00;;;;;;4963698;28;20209;-74
2022/03/09 11:48:59;;;;;;;7.10;6.00;;;12.70;78.90;;;;;;5013144;28;20175;-75
2022/03/09 11:51:26;;;;;;;6.70;5.53;;;13.20;76.50;;;;;;4979456;28;20215;-74
2022/03/09 11:53:57;;;;;;;6.83;5.70;;;13.10;70.20;;;;;;4963681;28;20549;-75
2022/03/09 11:56:32;;;;;;;7.73;6.20;;;13.00;70.50;;;;;;4979914;28;20160;-75
2022/03/09 11:59:15;;;;;;;7.60;5.90;;;13.30;71.10;;;;;;4964311;28;20174;-74
2022/03/09 12:02:03;;;;;;;10.70;8.27;;;13.60;69.90;;;;;;4963191;28;20218;-74
2022/03/09 12:04:48;;;;;;;8.40;6.50;;;13.90;73.90;;;;;;4995314;28;20198;-75
2022/03/09 12:07:34;;;;;;;7.63;6.27;;;14.20;69.70;;;;;;4995711;28;20186;-74
2022/03/09 12:10:04;;;;;;;7.00;5.73;;;14.20;67.00;;;;;;4995448;28;20174;-75
2022/03/09 12:12:31;;;;;;;7.90;6.53;;;14.20;64.70;;;;;;4994927;28;20294;-74
2022/03/09 12:15:16;;;;;;;8.17;6.20;;;14.20;64.40;;;;;;4995808;28;20178;-75
2022/03/09 12:17:49;;;;;;;7.20;6.30;;;14.10;67.70;;;;;;4995117;28;20174;-75
2022/03/09 12:20:18;;;;;;;7.80;6.23;;;14.40;69.90;;;;;;4979541;28;20182;-74
2022/03/09 12:23:15;;;;;;;9.70;6.20;;;14.80;65.40;;;;;;5012624;28;20207;-74
2022/03/09 12:25:48;;;;;;;8.03;6.37;;;14.90;62.90;;;;;;4980222;28;20195;-74
2022/03/09 12:28:40;;;;;;;8.97;6.87;;;15.10;68.00;;;;;;4995053;28;20183;-75
2022/03/09 12:31:05;;;;;;;6.60;5.80;;;15.20;59.50;;;;;;4994962;28;20202;-74
2022/03/09 12:33:36;;;;;;;7.23;5.80;;;15.00;61.90;;;;;;4994827;28;20194;-74
2022/03/09 12:36:19;;;;;;;8.83;6.00;;;15.10;60.70;;;;;;4978815;28;20175;-74
2022/03/09 12:38:45;;;;;;;6.73;5.57;;;15.00;59.20;;;;;;4978818;28;20171;-74
2022/03/09 12:41:24;;;;;;;8.30;6.30;;;15.10;59.70;;;;;;4996190;28;20229;-75
2022/03/09 12:43:52;;;;;;;7.60;5.93;;;15.40;61.60;;;;;;4998994;28;20171;-74